Time;durP1;ratioP1;P1;durP2;ratioP2;P2;SDS_P1;SDS_P2;PMS_P1;PMS_P2;Temp;Humidity;BMP_temperature;BMP_pressure;BME280_temperature;BME280_humidity;BME280_pressure;Samples;Min_cycle;Max_cycle;Signal;HPM_P1;HPM_P2
2023/10/12 00:00:24;;;;;;;2.47;1.47;;;17.70;95.90;;;19.16;72.00;100811.78;3081207;46;21026;-67
2023/10/12 00:02:50;;;;;;;3.40;1.80;;;17.60;95.90;;;19.13;71.73;100822.91;3081058;46;20981;-67
2023/10/12 00:05:20;;;;;;;2.07;1.67;;;17.60;95.90;;;19.12;71.60;100829.25;3081676;46;20508;-66
2023/10/12 00:07:54;;;;;;;2.50;1.97;;;17.60;96.00;;;19.11;71.71;100852.47;3081732;46;20712;-67
2023/10/12 00:10:23;;;;;;;2.57;1.87;;;17.60;96.00;;;19.12;72.17;100858.63;3081001;46;20443;-68
2023/10/12 00:12:59;;;;;;;2.07;1.87;;;17.60;96.10;;;19.10;71.78;100858.03;3081353;46;20576;-67
2023/10/12 00:15:29;;;;;;;2.57;1.60;;;17.60;96.20;;;19.11;72.22;100857.00;3081315;46;20485;-67
2023/10/12 00:18:08;;;;;;;1.83;1.37;;;17.60;96.20;;;19.10;71.88;100860.69;3081466;46;20439;-67
2023/10/12 00:20:38;;;;;;;2.40;1.73;;;17.60;96.20;;;19.11;71.93;100865.00;3080642;46;20439;-67
2023/10/12 00:23:10;;;;;;;2.57;1.60;;;17.50;96.20;;;19.13;72.39;100868.25;3081277;46;20456;-67
2023/10/12 00:25:47;;;;;;;4.27;1.53;;;17.50;96.20;;;19.10;71.54;100866.84;3081556;46;20423;-67
2023/10/12 00:28:19;;;;;;;3.40;1.57;;;17.50;95.90;;;19.08;71.58;100878.78;3080770;46;21080;-68
2023/10/12 00:30:54;;;;;;;5.73;1.67;;;17.50;95.60;;;19.03;70.86;100878.66;3081034;46;20439;-67
2023/10/12 00:33:24;;;;;;;3.43;1.43;;;17.50;95.00;;;19.00;70.58;100881.78;3081348;46;21080;-67
2023/10/12 00:36:04;;;;;;;4.73;1.60;;;17.50;95.00;;;18.96;70.61;100884.09;3080683;46;20938;-68
2023/10/12 00:38:32;;;;;;;4.07;1.80;;;17.40;94.90;;;18.91;70.94;100900.78;3080616;46;20509;-67
2023/10/12 00:41:06;;;;;;;3.57;1.67;;;17.40;95.00;;;18.90;70.98;100909.81;3080824;46;20443;-67
2023/10/12 00:44:20;;;;;;;5.53;2.10;;;17.40;95.00;;;18.80;70.85;100925.50;3081174;46;21002;-68
2023/10/12 00:49:30;;;;;;;4.67;1.77;;;17.30;94.90;;;18.74;71.21;100914.94;3080695;46;21021;-67
2023/10/12 00:52:08;;;;;;;4.37;1.80;;;17.20;95.00;;;18.73;71.37;100914.13;3080966;46;21026;-67
2023/10/12 00:57:06;;;;;;;5.33;2.17;;;17.10;95.40;;;18.71;71.39;100920.72;3081062;46;20435;-66
2023/10/12 00:59:37;;;;;;;5.60;1.77;;;17.10;95.50;;;18.67;71.27;100915.03;3080584;46;20576;-67
2023/10/12 01:02:15;;;;;;;8.90;1.80;;;17.10;95.20;;;18.62;70.65;100922.88;3079590;46;21007;-66
2023/10/12 01:04:44;;;;;;;5.93;1.93;;;17.00;95.10;;;18.57;71.42;100924.56;3080558;46;20431;-67
2023/10/12 01:07:19;;;;;;;5.30;2.00;;;16.90;95.40;;;18.53;71.49;100924.22;3081000;46;20456;-67
2023/10/12 01:09:48;;;;;;;6.17;2.30;;;16.90;95.60;;;18.51;71.59;100920.94;3080214;46;20553;-67
2023/10/12 01:12:18;;;;;;;8.07;2.23;;;16.90;95.50;;;18.46;71.98;100917.31;3080918;46;20427;-67
2023/10/12 01:14:54;;;;;;;7.00;2.23;;;16.80;95.30;;;18.43;71.68;100917.72;3080348;46;21084;-67
2023/10/12 01:17:35;;;;;;;3.27;1.60;;;16.80;95.90;;;18.40;71.74;100913.63;3080925;46;20427;-66
2023/10/12 01:20:11;;;;;;;6.63;2.07;;;16.80;95.60;;;18.37;71.95;100919.44;3080321;46;20456;-67
2023/10/12 01:22:39;;;;;;;11.33;2.37;;;16.70;95.60;;;18.33;71.89;100923.56;3080672;46;20431;-67
2023/10/12 01:25:19;;;;;;;12.27;2.53;;;16.70;95.80;;;18.34;72.41;100929.69;3080527;46;20427;-67
2023/10/12 01:27:47;;;;;;;6.33;2.33;;;16.70;96.00;;;18.32;72.53;100937.94;3080586;46;20435;-67
2023/10/12 01:30:22;;;;;;;6.90;2.33;;;16.60;96.00;;;18.29;72.25;100943.69;3080336;46;20481;-67
2023/10/12 01:32:54;;;;;;;6.57;2.03;;;16.60;95.90;;;18.26;72.45;100933.47;3080866;46;20508;-68
2023/10/12 01:35:33;;;;;;;6.13;2.13;;;16.60;96.10;;;18.24;73.14;100920.38;3081290;46;21006;-67
2023/10/12 01:38:01;;;;;;;7.80;2.10;;;16.60;96.00;;;18.21;72.75;100925.31;3080404;46;20423;-67
2023/10/12 01:43:17;;;;;;;6.40;2.43;;;16.50;96.30;;;18.15;72.89;100915.53;3080747;46;21121;-67
2023/10/12 01:46:01;;;;;;;6.63;2.20;;;16.50;96.30;;;18.13;73.10;100918.44;3080643;46;20431;-67
2023/10/12 01:48:33;;;;;;;5.20;1.93;;;16.50;96.40;;;18.09;73.37;100924.44;3080297;46;20470;-67
2023/10/12 01:51:14;;;;;;;8.50;2.30;;;16.40;96.10;;;18.04;73.22;100922.38;3080235;46;20454;-68
2023/10/12 01:53:43;;;;;;;9.10;2.33;;;16.40;96.30;;;18.01;73.19;100920.19;3080716;46;20501;-66
2023/10/12 01:56:11;;;;;;;7.67;1.87;;;16.40;96.30;;;17.98;73.74;100931.28;3080297;46;20431;-65
2023/10/12 01:58:43;;;;;;;7.70;2.60;;;16.30;96.40;;;17.96;73.59;100922.69;3079921;46;20514;-67
2023/10/12 02:01:18;;;;;;;5.80;2.20;;;16.30;96.40;;;17.94;73.68;100923.94;3079647;46;20528;-67
2023/10/12 02:03:53;;;;;;;8.27;2.13;;;16.20;96.40;;;17.93;73.78;100935.59;3079717;46;20460;-66
2023/10/12 02:06:28;;;;;;;8.17;2.97;;;16.20;96.40;;;17.88;73.84;100938.94;3080679;46;20494;-67
2023/10/12 02:09:10;;;;;;;8.87;2.40;;;16.20;96.30;;;17.84;73.60;100937.75;3079924;46;20431;-65
2023/10/12 02:11:43;;;;;;;6.07;2.63;;;16.10;96.50;;;17.85;73.80;100935.91;3080372;46;20427;-67
2023/10/12 02:14:14;;;;;;;7.83;2.50;;;16.10;96.60;;;17.85;74.10;100941.22;3081181;46;20431;-66
2023/10/12 02:16:53;;;;;;;7.70;2.37;;;16.10;97.00;;;17.88;74.32;100943.44;3082861;46;20587;-67
2023/10/12 02:22:25;;;;;;;7.97;2.53;;;16.10;97.10;;;17.89;74.27;100932.59;3081273;46;20427;-67
2023/10/12 02:25:17;;;;;;;5.20;2.30;;;16.10;97.10;;;17.90;74.28;100939.53;3082759;46;20487;-67
2023/10/12 02:27:54;;;;;;;7.57;3.17;;;16.10;97.10;;;17.89;74.31;100953.88;3082827;46;20518;-67
2023/10/12 02:30:28;;;;;;;7.73;2.80;;;16.10;97.10;;;17.91;74.68;100951.81;3081939;46;20472;-67
2023/10/12 02:33:07;;;;;;;10.67;2.17;;;16.20;97.10;;;17.90;74.46;100950.16;3082481;46;20434;-67
2023/10/12 02:35:44;;;;;;;6.57;2.27;;;16.20;96.80;;;17.87;74.24;100955.13;3083063;46;20544;-67
2023/10/12 02:38:15;;;;;;;9.33;2.67;;;16.10;96.90;;;17.84;74.17;100960.88;3082793;46;20593;-67
2023/10/12 02:40:44;;;;;;;9.27;2.90;;;16.10;96.70;;;17.81;74.41;100969.28;3082018;46;20481;-67
2023/10/12 02:43:15;;;;;;;8.30;2.70;;;16.10;96.70;;;17.78;74.22;100969.75;3082157;46;20588;-66
2023/10/12 02:45:49;;;;;;;4.87;2.10;;;16.00;96.60;;;17.74;74.22;100976.53;3082926;46;20427;-67
2023/10/12 02:48:23;;;;;;;6.43;2.20;;;16.00;96.60;;;17.73;74.59;100975.72;3082585;46;20528;-67
2023/10/12 02:50:57;;;;;;;6.33;2.53;;;16.00;97.10;;;17.72;74.68;100963.44;3082043;46;20443;-67
2023/10/12 02:53:29;;;;;;;6.23;2.37;;;15.90;96.80;;;17.69;74.92;100973.69;3082485;46;20508;-67
2023/10/12 02:55:58;;;;;;;7.63;2.87;;;15.90;96.70;;;17.66;74.62;100972.28;3082335;46;20435;-66
2023/10/12 02:58:28;;;;;;;8.60;2.70;;;16.00;97.00;;;17.65;74.75;100986.63;3082097;46;20488;-67
2023/10/12 03:01:12;;;;;;;7.53;2.47;;;15.90;97.20;;;17.65;75.04;100980.47;3081630;46;21007;-67
2023/10/12 03:03:54;;;;;;;9.37;2.40;;;15.90;96.90;;;17.64;74.49;100984.19;3081829;46;20431;-65
2023/10/12 03:06:31;;;;;;;7.63;2.73;;;15.90;97.00;;;17.61;75.01;100990.75;3082193;46;20448;-67
2023/10/12 03:09:03;;;;;;;7.47;2.50;;;15.90;97.20;;;17.62;75.03;100987.03;3082113;46;20514;-66
2023/10/12 03:11:32;;;;;;;9.60;2.50;;;15.90;97.20;;;17.62;74.92;100994.19;3082015;46;20452;-67
2023/10/12 03:14:00;;;;;;;7.57;2.60;;;15.90;97.10;;;17.60;74.51;100999.75;3081565;46;20452;-67
2023/10/12 03:16:41;;;;;;;5.20;2.03;;;15.90;97.10;;;17.56;74.56;100991.41;3081801;46;21070;-67
2023/10/12 03:19:28;;;;;;;10.13;3.20;;;15.80;97.10;;;17.55;74.89;100999.56;3081695;46;20436;-67
2023/10/12 03:22:03;;;;;;;8.63;2.70;;;15.80;97.00;;;17.49;74.62;101021.69;3081894;46;21022;-67
2023/10/12 03:24:44;;;;;;;8.63;2.63;;;15.80;96.70;;;17.48;74.59;101014.72;3081993;46;20545;-67
2023/10/12 03:27:13;;;;;;;8.83;2.47;;;15.70;97.10;;;17.47;74.90;101016.56;3082227;46;20427;-68
2023/10/12 03:29:50;;;;;;;4.87;2.37;;;15.70;97.00;;;17.45;74.88;101010.66;3081493;46;21082;-68
2023/10/12 03:32:23;;;;;;;9.57;2.17;;;15.70;97.10;;;17.45;74.74;101008.00;3081498;46;20431;-68
2023/10/12 03:43:25;;;;;;;9.37;2.70;;;15.70;96.90;;;17.42;74.73;101015.59;3078773;46;21064;-67
2023/10/12 03:46:06;;;;;;;7.07;2.70;;;15.70;97.00;;;17.41;74.70;101014.78;3080991;46;20471;-65
2023/10/12 03:53:56;;;;;;;8.27;2.70;;;15.70;96.80;;;17.39;74.08;101006.19;3081435;46;20483;-67
2023/10/12 03:56:39;;;;;;;6.80;2.63;;;15.70;97.00;;;17.44;74.60;101009.03;3081734;46;20425;-67
2023/10/12 03:59:07;;;;;;;10.10;3.43;;;15.70;97.10;;;17.48;74.25;101012.06;3081020;46;20517;-67
2023/10/12 04:01:41;;;;;;;8.47;2.60;;;15.70;96.90;;;17.47;74.07;101029.88;3081518;46;20430;-67
2023/10/12 04:04:12;;;;;;;4.17;2.23;;;15.80;96.70;;;17.41;73.88;101022.75;3081425;46;20545;-67
2023/10/12 04:06:54;;;;;;;8.60;2.53;;;15.70;96.30;;;17.34;73.63;101021.97;3081375;46;20439;-67
2023/10/12 04:09:31;;;;;;;8.87;2.63;;;15.70;96.10;;;17.29;73.51;101013.81;3081337;46;21008;-67
2023/10/12 04:25:32;;;;;;;12.70;2.90;;;15.50;95.90;;;17.04;72.99;101039.50;3081442;46;20545;-66
2023/10/12 04:28:18;;;;;;;9.00;2.90;;;15.40;96.10;;;16.99;72.82;101047.28;3080882;46;20431;-67
2023/10/12 04:33:18;;;;;;;4.97;2.53;;;15.30;95.80;;;16.90;73.06;101054.63;3081276;46;20485;-67
2023/10/12 04:38:47;;;;;;;10.43;3.40;;;15.30;95.90;;;16.86;73.18;101060.59;3080446;46;20553;-67
2023/10/12 04:44:17;;;;;;;5.83;2.77;;;15.20;96.00;;;16.83;73.28;101074.28;3081227;46;20473;-67
2023/10/12 04:46:48;;;;;;;9.43;3.20;;;15.20;96.00;;;16.84;73.04;101075.94;3081104;46;20431;-67
2023/10/12 04:51:50;;;;;;;7.63;2.87;;;15.20;96.00;;;16.82;72.81;101083.31;3081145;46;20452;-67
2023/10/12 04:54:25;;;;;;;8.63;3.37;;;15.20;95.90;;;16.83;72.55;101095.56;3081143;46;21138;-66
2023/10/12 04:56:57;;;;;;;5.77;3.17;;;15.20;96.00;;;16.83;72.80;101087.56;3081135;46;21100;-65
2023/10/12 04:59:31;;;;;;;11.70;3.20;;;15.10;95.80;;;16.81;72.55;101089.63;3080432;46;21129;-67
2023/10/12 05:02:15;;;;;;;6.40;2.63;;;15.10;95.80;;;16.82;72.58;101084.13;3080983;46;20456;-67
2023/10/12 05:09:40;;;;;;;11.90;2.77;;;15.10;95.80;;;16.79;72.39;101067.75;3080333;46;20467;-67
2023/10/12 05:12:10;;;;;;;6.80;2.77;;;15.10;95.80;;;16.79;72.49;101073.06;3080862;46;20431;-67
2023/10/12 05:14:39;;;;;;;10.10;3.23;;;15.10;95.70;;;16.78;72.33;101069.59;3080645;46;20436;-67
2023/10/12 05:17:08;;;;;;;12.83;3.10;;;15.10;95.70;;;16.79;72.26;101076.56;3081227;46;20456;-65
2023/10/12 05:19:36;;;;;;;9.97;3.00;;;15.10;95.80;;;16.78;72.23;101082.09;3080278;46;20459;-67
2023/10/12 05:22:10;;;;;;;5.90;2.93;;;15.10;95.70;;;16.78;72.13;101087.41;3080617;46;20509;-67
2023/10/12 05:24:39;;;;;;;8.30;3.00;;;15.10;95.80;;;16.80;72.02;101090.66;3080813;46;21021;-65
2023/10/12 05:27:19;;;;;;;5.73;2.97;;;15.10;95.80;;;16.82;72.05;101077.97;3080631;46;20456;-67
2023/10/12 05:29:52;;;;;;;13.13;3.37;;;15.10;95.80;;;16.82;71.88;101077.97;3080537;46;20439;-65
2023/10/12 05:32:36;;;;;;;11.30;2.80;;;15.10;95.70;;;16.79;71.99;101086.38;3080371;46;20456;-65
2023/10/12 05:35:05;;;;;;;11.17;3.03;;;15.10;95.60;;;16.77;71.81;101091.06;3080643;46;20440;-67
2023/10/12 05:37:48;;;;;;;13.23;3.43;;;15.10;95.40;;;16.73;71.63;101090.69;3080188;46;20971;-67
2023/10/12 05:40:17;;;;;;;10.20;3.17;;;15.10;95.40;;;16.69;71.48;101105.38;3079790;46;20468;-68
2023/10/12 05:42:47;;;;;;;9.10;3.40;;;15.10;95.40;;;16.66;71.45;101110.31;3080122;46;20443;-67
2023/10/12 05:45:22;;;;;;;9.63;3.00;;;15.10;95.40;;;16.63;71.49;101121.34;3080581;46;20428;-64
2023/10/12 05:47:54;;;;;;;16.80;3.70;;;15.00;95.30;;;16.63;71.78;101127.50;3080295;46;21016;-68
2023/10/12 05:50:26;;;;;;;9.27;3.50;;;15.00;95.50;;;16.63;71.76;101131.97;3082281;46;20439;-68
2023/10/12 05:53:00;;;;;;;10.73;3.67;;;15.00;95.50;;;16.63;71.98;101132.81;3082553;46;21037;-69
2023/10/12 05:55:29;;;;;;;8.43;3.93;;;15.00;95.60;;;16.64;71.74;101128.31;3082551;46;20426;-66
2023/10/12 05:58:09;;;;;;;10.97;3.73;;;15.00;95.60;;;16.67;71.83;101127.88;3082952;46;20427;-66
2023/10/12 06:00:52;;;;;;;16.30;5.90;;;15.00;95.80;;;16.71;71.84;101137.91;3082145;46;20467;-67
2023/10/12 06:03:23;;;;;;;15.53;4.17;;;15.00;95.80;;;16.72;71.92;101150.19;3082916;46;20430;-67
2023/10/12 06:05:52;;;;;;;9.93;4.40;;;15.00;95.70;;;16.72;71.74;101149.34;3082827;46;20507;-67
2023/10/12 06:08:24;;;;;;;9.77;4.17;;;15.00;95.50;;;16.72;71.62;101160.00;3082279;46;20452;-67
2023/10/12 06:10:54;;;;;;;10.33;3.70;;;15.00;95.50;;;16.71;71.46;101166.34;3082141;46;20463;-67
2023/10/12 06:13:30;;;;;;;12.97;4.33;;;15.00;95.50;;;16.69;71.45;101163.03;3082623;46;20426;-67
2023/10/12 06:15:59;;;;;;;11.27;4.73;;;15.00;95.50;;;16.69;71.36;101157.72;3082433;46;20499;-67
2023/10/12 06:18:30;;;;;;;15.70;5.00;;;15.00;95.60;;;16.70;71.43;101165.53;3082609;46;20514;-67
2023/10/12 06:20:58;;;;;;;8.93;4.77;;;15.00;95.60;;;16.72;71.58;101173.28;3081715;46;20443;-68
2023/10/12 06:23:28;;;;;;;7.80;4.20;;;15.00;95.60;;;16.73;71.28;101164.28;3082295;46;20452;-68
2023/10/12 06:25:57;;;;;;;9.20;3.53;;;15.00;95.80;;;16.81;72.02;101166.72;3082105;46;21089;-68
2023/10/12 06:28:34;;;;;;;10.53;4.43;;;15.10;96.00;;;16.85;71.93;101166.13;3081839;46;20455;-67
2023/10/12 06:31:04;;;;;;;10.40;5.17;;;15.10;95.90;;;16.87;71.54;101174.72;3081808;46;20525;-67
2023/10/12 06:33:33;;;;;;;9.67;5.07;;;15.10;95.70;;;16.89;71.37;101180.66;3082550;46;20527;-68
2023/10/12 06:44:25;;;;;;;14.63;5.13;;;15.20;95.40;;;16.70;71.38;101175.34;3080991;46;21085;-69
2023/10/12 06:48:45;;;;;;;7.60;4.43;;;15.20;95.40;;;16.67;71.94;101175.72;3080012;43;20470;-69
2023/10/12 07:00:59;;;;;;;14.93;9.93;;;15.20;95.50;;;16.70;71.86;101178.81;3080320;46;21055;-71
2023/10/12 07:04:50;;;;;;;;;;;;;;;;;;;;;
2023/10/12 07:08:42;;;;;;;9.80;5.43;;;15.20;95.90;;;16.88;72.47;101196.81;3081488;46;20439;-71
2023/10/12 07:16:06;;;;;;;10.57;5.50;;;15.40;95.70;;;17.08;71.40;101207.44;3081479;43;20463;-70
2023/10/12 07:19:09;;;;;;;;;;;;;;;;;;;;;
2023/10/12 07:26:20;;;;;;;9.37;4.47;;;15.60;95.50;;;17.22;71.38;101217.06;3081905;46;21018;-71
2023/10/12 07:30:02;;;;;;;9.73;4.63;;;15.70;95.80;;;17.32;70.98;101212.13;3081277;46;20457;-71
2023/10/12 07:33:22;;;;;;;;;;;;;;;;;;;;;
2023/10/12 07:37:05;;;;;;;11.03;4.70;;;15.80;95.40;;;17.36;70.47;101219.50;3081407;46;20545;-71
2023/10/12 07:40:56;;;;;;;11.07;4.27;;;15.90;94.90;;;17.35;70.36;101235.69;3081223;46;20518;-71
2023/10/12 07:44:39;;;;;;;;;;;;;;;;;;;;;
2023/10/12 07:47:49;;;;;;;12.00;5.27;;;15.80;94.40;;;17.25;70.14;101249.41;3079305;43;21012;-70
2023/10/12 07:50:53;;;;;;;12.73;5.17;;;15.80;94.40;;;17.28;70.05;101264.16;3079938;46;20463;-70
2023/10/12 07:54:25;;;;;;;11.10;4.93;;;15.80;94.30;;;17.25;69.62;101265.38;3079855;46;21069;-70
2023/10/12 07:57:35;;;;;;;12.50;4.93;;;15.70;94.30;;;17.22;69.92;101271.09;3079799;46;20464;-71
2023/10/12 08:13:16;;;;;;;14.50;4.60;;;15.70;94.50;;;17.38;69.33;101281.31;3079511;43;20435;-68
2023/10/12 08:21:30;;;;;;;14.77;4.70;;;15.70;94.50;;;17.56;68.85;101280.75;3079220;46;20505;-65
2023/10/12 08:37:20;;;;;;;8.63;3.60;;;16.00;93.80;;;17.91;67.36;101302.59;3080796;46;20436;-66
2023/10/12 08:44:55;;;;;;;9.63;3.30;;;16.20;93.50;;;18.18;66.60;101309.50;3078731;46;20561;-63
2023/10/12 08:50:05;;;;;;;6.70;3.97;;;16.40;93.00;;;18.51;66.10;101323.53;3078594;46;20581;-66
2023/10/12 08:52:38;;;;;;;11.07;4.40;;;16.50;93.00;;;18.84;65.79;101318.03;3076192;46;20456;-66
2023/10/12 08:55:12;;;;;;;10.43;4.13;;;16.60;93.10;;;19.19;65.82;101315.72;3078266;46;20447;-66
2023/10/12 08:58:42;;;;;;;5.57;3.27;;;16.70;93.10;;;19.37;64.03;101326.53;3078734;43;20535;-65
2023/10/12 09:01:10;;;;;;;11.10;4.17;;;17.00;92.70;;;19.53;63.53;101329.47;3077991;46;20452;-66
2023/10/12 09:03:44;;;;;;;6.70;3.37;;;17.30;92.20;;;19.61;62.76;101333.72;3078161;46;20505;-66
2023/10/12 09:09:00;;;;;;;8.23;3.87;;;17.60;90.90;;;19.70;61.09;101326.25;3079715;46;20518;-64
2023/10/12 09:11:34;;;;;;;20.20;13.80;;;17.60;90.50;;;19.83;60.72;101329.59;3077280;46;20447;-67
2023/10/12 09:14:13;;;;;;;9.37;3.07;;;17.70;90.30;;;20.01;59.67;101332.31;3079620;43;20435;-65
2023/10/12 09:16:43;;;;;;;7.07;3.70;;;17.80;89.40;;;20.18;58.89;101327.97;3077412;46;20460;-67
2023/10/12 09:19:26;;;;;;;7.17;2.67;;;17.90;89.00;;;20.37;58.04;101325.34;3057571;46;20628;-67
2023/10/12 09:22:00;;;;;;;10.37;3.10;;;18.00;87.30;;;20.42;56.70;101328.97;3063538;46;20424;-66
2023/10/12 09:24:36;;;;;;;8.60;2.73;;;18.10;85.60;;;20.43;56.40;101332.47;3062183;46;20471;-67
2023/10/12 09:27:26;;;;;;;9.67;3.07;;;18.10;85.60;;;20.42;55.72;101330.84;3076165;43;20443;-66
2023/10/12 09:29:58;;;;;;;6.70;2.40;;;18.20;85.50;;;20.41;55.69;101340.72;3061018;46;20466;-64
2023/10/12 09:32:32;;;;;;;7.97;3.07;;;18.20;84.40;;;20.36;54.97;101345.09;3075513;46;20431;-66
2023/10/12 09:35:13;;;;;;;10.20;2.93;;;18.20;82.50;;;20.31;54.67;101339.59;3048930;46;20536;-62
2023/10/12 09:37:44;;;;;;;10.50;3.07;;;18.20;82.10;;;20.25;54.32;101342.13;3075470;46;20444;-66
2023/10/12 09:40:27;;;;;;;7.03;2.73;;;18.20;82.00;;;20.21;54.11;101348.13;3075966;44;21181;-65
2023/10/12 09:43:02;;;;;;;9.57;4.00;;;18.20;81.30;;;20.19;54.26;101353.69;3076648;46;20426;-66
2023/10/12 09:45:39;;;;;;;6.63;2.87;;;18.20;81.80;;;20.27;54.18;101351.78;3073791;46;20573;-64
2023/10/12 09:48:12;;;;;;;8.70;2.60;;;18.20;81.90;;;20.39;54.15;101360.72;3068845;46;20427;-66
2023/10/12 09:50:43;;;;;;;11.03;2.90;;;18.30;81.70;;;20.53;53.82;101362.19;3073047;46;20439;-64
2023/10/12 09:53:21;;;;;;;10.67;2.40;;;18.30;81.10;;;20.67;52.84;101358.31;3076006;43;20427;-66
2023/10/12 09:56:10;;;;;;;9.97;2.87;;;18.40;81.10;;;20.80;52.46;101358.94;3062749;46;20459;-67
2023/10/12 09:58:51;;;;;;;8.13;2.80;;;18.50;79.80;;;20.93;52.02;101350.75;3064643;46;21382;-65
2023/10/12 10:01:49;;;;;;;10.13;2.87;;;18.60;79.50;;;21.02;51.82;101348.53;3063507;46;20494;-64
2023/10/12 10:07:36;;;;;;;10.17;3.53;;;18.80;78.80;;;21.07;50.86;101346.03;3067621;46;20571;-66
2023/10/12 10:10:08;;;;;;;9.87;3.23;;;18.90;77.10;;;21.10;51.06;101345.59;3076641;46;21053;-66
2023/10/12 10:12:42;;;;;;;9.30;3.47;;;19.00;78.10;;;21.18;51.05;101347.91;3076858;46;21137;-66
2023/10/12 10:15:14;;;;;;;11.67;3.17;;;19.00;77.90;;;21.28;50.50;101347.38;3066094;46;20673;-67
2023/10/12 10:17:53;;;;;;;12.83;3.37;;;19.00;76.80;;;21.31;50.25;101349.59;3074591;46;21030;-67
2023/10/12 10:23:04;;;;;;;11.53;3.43;;;19.10;74.80;;;21.28;49.12;101342.81;3067234;46;20447;-67
2023/10/12 10:25:45;;;;;;;7.67;2.93;;;19.20;74.60;;;21.29;49.64;101344.47;3073795;46;20451;-72
2023/10/12 10:28:25;;;;;;;8.90;2.77;;;19.20;75.20;;;21.29;49.19;101349.81;3078597;46;20428;-66
2023/10/12 10:30:59;;;;;;;11.33;3.57;;;19.20;74.70;;;21.31;49.03;101357.63;3068652;46;20467;-67
2023/10/12 10:33:29;;;;;;;16.07;4.00;;;19.20;75.00;;;21.29;49.26;101354.38;3073457;46;20508;-65
2023/10/12 10:38:53;;;;;;;7.30;2.20;;;19.20;75.50;;;21.32;48.57;101354.69;3074089;46;20431;-66
2023/10/12 10:44:21;;;;;;;9.67;3.23;;;19.20;71.60;;;21.24;47.37;101346.19;3079858;46;20563;-67
2023/10/12 10:47:10;;;;;;;7.23;4.70;;;19.20;70.80;;;21.20;47.08;101345.84;3072194;46;20488;-64
2023/10/12 10:49:39;;;;;;;14.10;6.17;;;19.20;69.60;;;21.13;46.34;101339.78;3076570;46;20509;-66
2023/10/12 10:54:39;;;;;;;12.20;4.67;;;19.10;68.10;;;21.22;45.88;101343.75;3066541;46;20520;-64
2023/10/12 10:57:16;;;;;;;11.07;5.00;;;19.10;69.50;;;21.18;45.99;101342.56;3079492;46;20435;-66
2023/10/12 10:59:45;;;;;;;7.67;4.70;;;19.10;68.90;;;21.15;45.67;101352.94;3080092;46;20435;-64
2023/10/12 11:02:14;;;;;;;10.30;3.50;;;19.10;68.60;;;21.13;45.53;101352.34;3065027;46;20426;-67
2023/10/12 11:04:46;;;;;;;10.47;3.33;;;19.10;67.60;;;21.08;45.36;101353.03;3079690;46;20589;-65
2023/10/12 11:07:19;;;;;;;7.87;3.40;;;19.10;67.60;;;21.09;45.67;101357.34;3078070;46;21085;-68
2023/10/12 11:12:26;;;;;;;8.57;3.87;;;19.10;68.80;;;21.35;45.23;101370.31;3080060;46;20447;-69
2023/10/12 11:15:00;;;;;;;11.60;5.33;;;19.10;67.70;;;21.51;44.92;101363.50;3070919;46;21306;-67
2023/10/12 11:17:41;;;;;;;7.00;2.57;;;19.20;68.50;;;21.64;44.82;101367.81;3074572;46;20592;-68
2023/10/12 11:20:27;;;;;;;8.07;2.90;;;19.30;67.60;;;21.71;44.07;101363.97;3078704;46;20599;-64
2023/10/12 11:22:57;;;;;;;9.53;3.50;;;19.40;65.60;;;21.81;43.85;101364.22;3069853;46;20466;-67
2023/10/12 11:25:27;;;;;;;12.47;3.50;;;19.40;65.80;;;21.86;43.90;101359.00;3074928;46;20549;-66
2023/10/12 11:27:55;;;;;;;7.78;3.40;;;19.50;66.30;;;21.97;43.36;101360.84;3078319;46;22337;-66
2023/10/12 11:30:34;;;;;;;7.27;3.00;;;19.50;66.40;;;21.90;43.54;101357.47;3062816;46;20467;-66
2023/10/12 11:33:09;;;;;;;9.97;2.27;;;19.60;66.10;;;21.83;43.90;101355.94;3077498;46;20451;-66
2023/10/12 11:35:41;;;;;;;7.37;2.73;;;19.60;66.60;;;21.75;44.03;101350.94;3077737;46;20435;-66
2023/10/12 11:38:24;;;;;;;10.13;3.00;;;19.60;66.10;;;21.67;43.64;101348.59;3063873;46;20524;-63
2023/10/12 11:40:53;;;;;;;9.03;3.03;;;19.60;65.20;;;21.62;43.72;101346.59;3066406;46;20917;-66
2023/10/12 11:43:43;;;;;;;7.17;3.60;;;19.60;65.70;;;21.53;43.75;101348.81;3078062;46;20703;-66
2023/10/12 11:46:14;;;;;;;9.30;3.13;;;19.60;65.70;;;21.43;44.07;101351.25;3077739;46;20451;-67
2023/10/12 11:48:44;;;;;;;9.93;2.57;;;19.50;65.70;;;21.45;44.27;101342.97;3062638;46;20434;-66
2023/10/12 11:51:12;;;;;;;5.83;2.70;;;19.50;66.10;;;21.52;44.73;101344.50;3077123;46;20520;-68
2023/10/12 11:53:41;;;;;;;9.20;2.73;;;19.60;66.40;;;21.58;44.17;101343.56;3063976;46;20447;-67
2023/10/12 11:56:13;;;;;;;5.23;2.77;;;19.50;65.80;;;21.63;43.94;101348.25;3078759;46;20529;-66
2023/10/12 11:58:48;;;;;;;10.17;2.50;;;19.60;65.90;;;21.67;44.17;101346.72;3071996;46;20455;-68
2023/10/12 12:01:18;;;;;;;6.53;2.50;;;19.60;65.60;;;21.70;43.48;101345.44;3072272;46;21084;-67
2023/10/12 12:03:47;;;;;;;6.47;2.23;;;19.60;64.80;;;21.72;43.38;101340.66;3078415;46;20587;-66
2023/10/12 12:06:18;;;;;;;17.17;13.30;;;19.60;64.50;;;21.72;43.18;101338.81;3062343;46;20458;-66
2023/10/12 12:08:51;;;;;;;6.67;3.20;;;19.60;64.20;;;21.70;42.92;101334.72;3078073;46;20427;-66
2023/10/12 12:11:19;;;;;;;5.97;3.10;;;19.60;63.50;;;21.68;42.66;101331.47;3078281;46;20508;-68
2023/10/12 12:13:51;;;;;;;10.70;2.50;;;19.60;63.50;;;21.64;42.23;101335.66;3064318;46;20459;-69
2023/10/12 12:16:23;;;;;;;9.13;2.83;;;19.60;62.90;;;21.58;42.45;101335.53;3077992;46;20486;-65
2023/10/12 12:18:52;;;;;;;7.67;3.37;;;19.60;63.20;;;21.55;43.09;101332.50;3068932;46;21640;-69
2023/10/12 12:21:57;;;;;;;12.83;4.67;;;19.50;63.60;;;21.42;41.93;101327.34;3072261;43;20443;-70
2023/10/12 12:24:57;;;;;;;8.93;2.63;;;19.50;62.40;;;21.28;41.84;101332.13;3070600;46;21014;-69
2023/10/12 12:28:07;;;;;;;8.53;2.63;;;19.50;61.70;;;21.15;43.13;101336.88;3075937;46;20439;-71
2023/10/12 12:31:14;;;;;;;7.77;2.83;;;19.40;63.20;;;21.12;43.20;101331.97;3075674;46;20471;-71
2023/10/12 12:34:33;;;;;;;7.83;2.47;;;19.40;63.70;;;21.11;43.31;101333.81;3072160;46;20458;-71
2023/10/12 12:41:18;;;;;;;10.83;2.70;;;19.20;63.30;;;21.05;43.46;101328.56;3068201;46;21190;-72
2023/10/12 12:48:11;;;;;;;7.03;2.10;;;19.20;64.40;;;21.02;43.41;101323.63;3074524;46;20443;-72
2023/10/12 12:51:28;;;;;;;5.43;2.27;;;19.20;62.60;;;20.93;43.40;101320.47;3076448;46;21097;-71
2023/10/12 12:57:56;;;;;;;7.13;2.67;;;19.10;63.90;;;20.84;44.04;101324.53;3077484;46;20581;-66
2023/10/12 13:01:00;;;;;;;9.40;2.93;;;19.10;64.10;;;20.87;43.90;101330.22;3068435;46;20490;-68
2023/10/12 13:03:55;;;;;;;10.77;2.57;;;19.10;64.40;;;20.88;44.07;101331.03;3075225;46;20463;-64
2023/10/12 13:07:30;;;;;;;8.20;3.00;;;19.10;63.70;;;20.85;43.68;101326.13;3076702;43;20634;-68
2023/10/12 13:10:29;;;;;;;6.43;2.67;;;19.00;64.00;;;20.93;44.06;101323.16;3069549;46;20484;-64
2023/10/12 13:13:25;;;;;;;5.50;2.40;;;19.10;64.80;;;20.97;43.94;101323.53;3069896;46;20450;-67
2023/10/12 13:16:24;;;;;;;4.67;2.50;;;19.10;65.30;;;20.96;44.25;101316.53;3062100;46;20522;-66
2023/10/12 13:19:08;;;;;;;5.27;2.03;;;19.20;65.90;;;20.93;43.93;101307.09;3075132;46;20479;-66
2023/10/12 13:21:45;;;;;;;6.80;1.90;;;19.10;63.90;;;20.82;43.78;101302.53;3072605;43;20544;-66
2023/10/12 13:24:14;;;;;;;6.83;2.40;;;19.10;63.30;;;20.74;44.22;101298.31;3065487;46;20489;-67
2023/10/12 13:26:51;;;;;;;7.77;2.10;;;19.10;64.20;;;20.74;44.33;101297.47;3074513;46;20443;-68
2023/10/12 13:29:21;;;;;;;6.67;2.57;;;19.10;64.60;;;20.74;44.08;101297.47;3058350;46;21380;-65
2023/10/12 13:31:50;;;;;;;7.47;2.77;;;19.00;64.00;;;20.72;44.07;101296.91;3076276;46;20442;-66
2023/10/12 13:34:19;;;;;;;5.60;2.37;;;19.00;64.00;;;20.69;43.79;101289.31;3076266;46;20471;-66
2023/10/12 13:36:48;;;;;;;5.82;2.40;;;19.00;63.80;;;20.65;44.21;101293.50;3035709;43;1006905;-65